Time;durP1;ratioP1;P1;durP2;ratioP2;P2;SDS_P1;SDS_P2;PMS_P1;PMS_P2;Temp;Humidity;BMP_temperature;BMP_pressure;BME280_temperature;BME280_humidity;BME280_pressure;Samples;Min_cycle;Max_cycle;Signal;HPM_P1;HPM_P2
2021/12/18 00:00:05;;;;;;;3.42;0.95;;;20.20;64.70;;;;;;4496695;31;20208;-77
2021/12/18 00:02:31;;;;;;;5.00;0.93;;;20.20;64.70;;;;;;4495888;31;20133;-78
2021/12/18 00:04:56;;;;;;;2.42;1.00;;;20.20;64.70;;;;;;4497112;31;20223;-77
2021/12/18 00:07:22;;;;;;;4.05;0.95;;;20.20;64.70;;;;;;4494406;31;20140;-77
2021/12/18 00:09:51;;;;;;;2.70;0.70;;;20.20;64.80;;;;;;4496865;31;20121;-77
2021/12/18 00:12:17;;;;;;;2.17;0.60;;;20.20;64.80;;;;;;4494714;31;20286;-77
2021/12/18 00:14:43;;;;;;;1.75;0.70;;;20.10;64.70;;;;;;4495584;31;20466;-77
2021/12/18 00:17:09;;;;;;;2.13;0.70;;;20.10;64.70;;;;;;4496535;31;20556;-76
2021/12/18 00:19:35;;;;;;;3.80;0.88;;;20.10;64.80;;;;;;4481259;31;20134;-77
2021/12/18 00:22:01;;;;;;;2.85;0.85;;;20.10;64.80;;;;;;4497092;31;20139;-77
2021/12/18 00:24:27;;;;;;;4.93;1.20;;;20.10;64.80;;;;;;4495585;31;20120;-78
2021/12/18 00:26:53;;;;;;;4.03;0.95;;;20.10;64.80;;;;;;4496674;31;20108;-78
2021/12/18 00:29:19;;;;;;;3.50;1.02;;;20.10;64.80;;;;;;4495497;31;20162;-77
2021/12/18 00:31:45;;;;;;;5.55;1.00;;;20.10;64.80;;;;;;4495161;31;20246;-77
2021/12/18 00:34:11;;;;;;;3.83;0.90;;;20.10;64.80;;;;;;4496179;31;20198;-77
2021/12/18 00:36:37;;;;;;;4.03;0.80;;;20.10;64.80;;;;;;4494148;31;20143;-77
2021/12/18 00:39:04;;;;;;;3.53;0.65;;;20.00;64.70;;;;;;4496427;31;20151;-77
2021/12/18 00:44:01;;;;;;;1.80;0.70;;;20.00;64.80;;;;;;4496464;31;20191;-77
2021/12/18 00:46:29;;;;;;;3.80;0.75;;;20.00;64.80;;;;;;4495384;31;20137;-77
2021/12/18 00:48:55;;;;;;;2.15;0.50;;;20.00;64.80;;;;;;4494581;31;20125;-77
2021/12/18 00:51:24;;;;;;;2.00;0.50;;;20.00;65.70;;;;;;4495994;31;20903;-77
2021/12/18 00:53:50;;;;;;;1.75;0.60;;;20.00;64.80;;;;;;4494047;31;20140;-77
2021/12/18 00:56:16;;;;;;;3.20;0.80;;;20.00;64.90;;;;;;4496498;31;20194;-77
2021/12/18 00:58:42;;;;;;;2.20;0.65;;;20.00;64.80;;;;;;4493821;31;20273;-76
2021/12/18 01:01:10;;;;;;;3.00;0.63;;;19.90;64.80;;;;;;4495337;31;20135;-77
2021/12/18 01:03:41;;;;;;;1.88;0.75;;;19.90;64.80;;;;;;4495130;31;20131;-77
2021/12/18 01:06:07;;;;;;;3.28;0.70;;;19.90;64.80;;;;;;4495588;31;20151;-76
2021/12/18 01:08:33;;;;;;;2.88;0.88;;;19.90;64.80;;;;;;4494126;31;20190;-76
2021/12/18 01:16:38;;;;;;;2.58;0.70;;;19.90;64.80;;;;;;4494739;31;20242;-76
2021/12/18 01:24:32;;;;;;;1.25;0.50;;;19.90;64.90;;;;;;4494525;31;20225;-77
2021/12/18 01:26:58;;;;;;;1.80;0.63;;;19.80;64.70;;;;;;4500691;31;20136;-77
2021/12/18 01:29:24;;;;;;;3.10;0.70;;;19.90;64.90;;;;;;4495227;31;20622;-76
2021/12/18 01:31:50;;;;;;;2.60;0.80;;;19.80;64.80;;;;;;4495142;31;20129;-76
2021/12/18 01:34:16;;;;;;;1.70;0.63;;;19.80;64.80;;;;;;4495613;31;20147;-77
2021/12/18 01:36:43;;;;;;;1.98;0.65;;;19.80;64.80;;;;;;4493213;31;20626;-76
2021/12/18 01:39:09;;;;;;;1.92;0.60;;;19.80;64.90;;;;;;4495910;31;20148;-77
2021/12/18 01:41:51;;;;;;;2.97;0.50;;;19.80;64.80;;;;;;4494240;31;20112;-76
2021/12/18 01:47:06;;;;;;;2.40;0.63;;;19.80;64.90;;;;;;4493529;31;20226;-76
2021/12/18 01:52:23;;;;;;;1.77;0.60;;;19.80;65.00;;;;;;4495810;31;20140;-76
2021/12/18 01:54:48;;;;;;;2.17;0.60;;;19.70;64.90;;;;;;4494206;31;20148;-77
2021/12/18 01:57:14;;;;;;;2.42;0.90;;;19.70;64.90;;;;;;4495214;31;20494;-77
2021/12/18 01:59:47;;;;;;;0.82;0.40;;;19.70;65.00;;;;;;4494662;31;20132;-77
2021/12/18 02:02:14;;;;;;;2.95;0.50;;;19.70;65.00;;;;;;4493336;31;20172;-77
2021/12/18 02:04:40;;;;;;;1.80;0.60;;;19.70;64.90;;;;;;4494220;31;20128;-77
2021/12/18 02:07:07;;;;;;;2.75;0.40;;;19.70;64.90;;;;;;4494012;31;20125;-77
2021/12/18 02:12:09;;;;;;;0.98;0.50;;;19.70;65.00;;;;;;4494537;31;20128;-76
2021/12/18 02:19:34;;;;;;;1.08;0.45;;;19.70;65.00;;;;;;4494666;31;20250;-76
2021/12/18 02:20:24;;;;;;;1.40;0.50;;;19.60;64.90;;;;;;4494674;31;20136;-76
2021/12/18 02:22:56;;;;;;;1.33;0.50;;;19.60;65.80;;;;;;4498060;31;20148;-77
2021/12/18 02:25:23;;;;;;;1.38;0.30;;;19.60;64.90;;;;;;4497998;31;20246;-77
2021/12/18 02:27:51;;;;;;;1.40;0.50;;;19.60;64.80;;;;;;4497460;31;20279;-77
2021/12/18 02:30:21;;;;;;;0.85;0.40;;;19.60;64.90;;;;;;4498482;31;20124;-77
2021/12/18 02:32:48;;;;;;;1.98;0.50;;;19.60;64.80;;;;;;4495999;31;20128;-77
2021/12/18 02:35:38;;;;;;;1.80;0.50;;;19.60;65.00;;;;;;4497258;31;20180;-77
2021/12/18 02:38:19;;;;;;;1.70;0.40;;;19.60;64.80;;;;;;4496351;31;20136;-77
2021/12/18 02:41:22;;;;;;;2.05;0.60;;;19.60;64.80;;;;;;4496122;31;20145;-77
2021/12/18 02:43:38;;;;;;;0.77;0.30;;;19.60;64.90;;;;;;4497877;31;20121;-77
2021/12/18 02:46:09;;;;;;;1.60;0.60;;;19.60;64.80;;;;;;4497194;31;20117;-77
2021/12/18 02:48:40;;;;;;;1.80;0.35;;;19.60;64.80;;;;;;4497145;31;20144;-77
2021/12/18 02:51:08;;;;;;;1.25;0.35;;;19.60;64.80;;;;;;4497377;31;20141;-77
2021/12/18 02:53:36;;;;;;;0.75;0.47;;;19.60;64.90;;;;;;4497365;31;20120;-77
2021/12/18 02:56:05;;;;;;;2.33;0.60;;;19.50;64.80;;;;;;4498037;31;20152;-77
2021/12/18 02:58:35;;;;;;;0.80;0.35;;;19.50;64.80;;;;;;4496668;31;20151;-77
2021/12/18 03:01:01;;;;;;;0.82;0.40;;;19.50;64.80;;;;;;4497865;31;20497;-77
2021/12/18 03:03:31;;;;;;;1.35;0.40;;;19.50;64.80;;;;;;4497032;31;20148;-78
2021/12/18 03:08:51;;;;;;;1.58;0.60;;;19.50;64.70;;;;;;4497907;31;20285;-78
2021/12/18 03:25:00;;;;;;;1.92;0.50;;;19.50;64.70;;;;;;4496346;31;20121;-76
2021/12/18 03:27:27;;;;;;;1.48;0.40;;;19.40;64.70;;;;;;4496952;31;20129;-77
2021/12/18 03:29:53;;;;;;;1.05;0.30;;;19.40;64.70;;;;;;4496886;31;20132;-77
2021/12/18 03:32:19;;;;;;;1.27;0.20;;;19.40;64.70;;;;;;4496153;31;20135;-77
2021/12/18 03:34:45;;;;;;;2.17;0.50;;;19.50;64.70;;;;;;4497712;31;20184;-77
2021/12/18 03:37:11;;;;;;;0.55;0.20;;;19.40;64.70;;;;;;4496341;31;20585;-77
2021/12/18 03:39:42;;;;;;;0.65;0.40;;;19.40;64.70;;;;;;4497534;31;20125;-77
2021/12/18 03:42:08;;;;;;;1.30;0.40;;;19.40;64.70;;;;;;4495273;31;20480;-77
2021/12/18 03:44:34;;;;;;;0.70;0.30;;;19.40;64.70;;;;;;4497042;31;20129;-76
2021/12/18 03:47:01;;;;;;;0.80;0.30;;;19.40;64.70;;;;;;4496838;31;20133;-77
2021/12/18 03:49:27;;;;;;;0.38;0.20;;;19.40;64.60;;;;;;4482304;31;20121;-77
2021/12/18 03:51:54;;;;;;;1.02;0.40;;;19.40;64.70;;;;;;4497105;31;20302;-76
2021/12/18 03:54:21;;;;;;;0.60;0.30;;;19.40;64.70;;;;;;4496158;31;20585;-77
2021/12/18 03:56:47;;;;;;;1.80;0.43;;;19.40;64.70;;;;;;4495991;31;20730;-77
2021/12/18 03:59:13;;;;;;;0.82;0.40;;;19.40;64.60;;;;;;4495059;31;20168;-77
2021/12/18 04:01:39;;;;;;;1.55;0.40;;;19.40;64.70;;;;;;4495659;31;20298;-77
2021/12/18 04:04:05;;;;;;;0.63;0.22;;;19.40;64.70;;;;;;4495345;31;20128;-77
2021/12/18 04:06:31;;;;;;;1.10;0.40;;;19.30;64.70;;;;;;4496135;31;20143;-77
2021/12/18 04:08:59;;;;;;;0.95;0.47;;;19.30;64.70;;;;;;4496959;31;20277;-77
2021/12/18 04:11:24;;;;;;;1.13;0.40;;;19.30;64.70;;;;;;4495896;31;20144;-77
2021/12/18 04:13:50;;;;;;;0.90;0.20;;;19.30;64.70;;;;;;4496912;31;20164;-77
2021/12/18 04:16:18;;;;;;;1.98;0.40;;;19.30;64.70;;;;;;4495818;31;20123;-77
2021/12/18 04:18:44;;;;;;;0.65;0.28;;;19.30;64.70;;;;;;4496649;31;20117;-77
2021/12/18 04:21:10;;;;;;;1.83;0.43;;;19.30;64.70;;;;;;4495090;31;20278;-77
2021/12/18 04:23:36;;;;;;;1.67;0.32;;;19.30;64.60;;;;;;4495839;31;20127;-77
2021/12/18 04:26:02;;;;;;;1.25;0.35;;;19.30;64.70;;;;;;4496641;31;20132;-77
2021/12/18 04:28:28;;;;;;;0.80;0.30;;;19.30;64.60;;;;;;4495934;31;20353;-77
2021/12/18 04:30:54;;;;;;;1.13;0.30;;;19.30;64.70;;;;;;4496694;31;20112;-76
2021/12/18 04:33:20;;;;;;;1.45;0.20;;;19.30;64.70;;;;;;4495614;31;20144;-76
2021/12/18 04:35:46;;;;;;;1.85;0.40;;;19.30;64.70;;;;;;4496322;31;20139;-77
2021/12/18 04:38:12;;;;;;;0.45;0.30;;;19.20;64.60;;;;;;4496029;31;20178;-77
2021/12/18 04:40:40;;;;;;;0.98;0.40;;;19.20;64.60;;;;;;4495707;31;20144;-77
2021/12/18 04:43:06;;;;;;;0.55;0.30;;;19.30;64.70;;;;;;4495798;31;20220;-76
2021/12/18 04:45:32;;;;;;;0.65;0.20;;;19.30;64.70;;;;;;4495226;31;20266;-77
2021/12/18 04:47:58;;;;;;;0.68;0.30;;;19.30;64.70;;;;;;4496265;31;20114;-78
2021/12/18 04:50:25;;;;;;;0.65;0.30;;;19.30;64.70;;;;;;4494030;31;20136;-77
2021/12/18 04:52:50;;;;;;;0.43;0.20;;;19.20;64.60;;;;;;4495917;31;20146;-76
2021/12/18 04:55:18;;;;;;;1.00;0.30;;;19.20;64.70;;;;;;4495625;31;20496;-77
2021/12/18 04:57:44;;;;;;;0.57;0.15;;;19.20;64.70;;;;;;4495192;31;20230;-77
2021/12/18 05:00:15;;;;;;;0.52;0.20;;;19.20;64.60;;;;;;4496375;31;20527;-77
2021/12/18 05:02:43;;;;;;;0.95;0.40;;;19.20;64.70;;;;;;4494840;31;20152;-77
2021/12/18 05:05:12;;;;;;;1.38;0.40;;;19.20;64.70;;;;;;4496222;31;20649;-77
2021/12/18 05:07:42;;;;;;;1.10;0.20;;;19.20;64.70;;;;;;4495153;31;20136;-76
2021/12/18 05:10:10;;;;;;;1.10;0.22;;;19.20;64.70;;;;;;4495493;31;20125;-77
2021/12/18 05:12:37;;;;;;;0.50;0.20;;;19.20;64.60;;;;;;4495654;31;20129;-76
2021/12/18 05:15:04;;;;;;;0.63;0.10;;;19.20;64.60;;;;;;4494628;31;20159;-76
2021/12/18 05:17:30;;;;;;;0.65;0.30;;;19.20;64.60;;;;;;4495198;31;20206;-76
2021/12/18 05:19:56;;;;;;;0.63;0.30;;;19.20;64.70;;;;;;4493551;31;20258;-76
2021/12/18 05:22:22;;;;;;;1.75;0.47;;;19.10;64.60;;;;;;4496142;31;20128;-77
2021/12/18 05:24:48;;;;;;;0.85;0.40;;;19.10;64.60;;;;;;4494829;31;20239;-77
2021/12/18 05:27:13;;;;;;;0.65;0.22;;;19.10;64.70;;;;;;4495071;31;20179;-77
2021/12/18 05:29:39;;;;;;;1.50;0.28;;;19.10;64.70;;;;;;4495507;31;20470;-77
2021/12/18 05:32:05;;;;;;;1.58;0.30;;;19.10;64.70;;;;;;4494636;31;20155;-77
2021/12/18 05:34:39;;;;;;;1.27;0.30;;;19.10;64.70;;;;;;4494946;31;20136;-77
2021/12/18 05:37:32;;;;;;;0.57;0.22;;;19.10;64.60;;;;;;4493485;31;20194;-77
2021/12/18 05:39:58;;;;;;;1.52;0.30;;;19.10;64.70;;;;;;4495447;31;20143;-77
2021/12/18 05:42:25;;;;;;;1.13;0.20;;;19.10;64.70;;;;;;4494929;31;20279;-77
2021/12/18 05:44:51;;;;;;;0.40;0.20;;;19.10;64.70;;;;;;4494731;31;20249;-77
2021/12/18 05:47:17;;;;;;;0.98;0.30;;;19.10;64.70;;;;;;4495467;31;20258;-76
2021/12/18 05:49:43;;;;;;;0.60;0.30;;;19.00;64.60;;;;;;4494322;31;20580;-77
2021/12/18 05:52:09;;;;;;;0.30;0.20;;;19.10;64.60;;;;;;4494413;31;20566;-76
2021/12/18 05:54:36;;;;;;;1.02;0.25;;;19.10;64.60;;;;;;4494394;31;20213;-78
2021/12/18 05:57:06;;;;;;;0.80;0.15;;;19.10;64.60;;;;;;4495147;31;20184;-76
2021/12/18 05:59:33;;;;;;;0.55;0.30;;;19.00;64.60;;;;;;4495050;31;20147;-77
2021/12/18 06:02:00;;;;;;;0.95;0.30;;;19.00;64.60;;;;;;4494477;31;20155;-77
2021/12/18 06:04:25;;;;;;;0.50;0.30;;;19.00;64.60;;;;;;4494433;31;20190;-77
2021/12/18 06:06:51;;;;;;;0.30;0.20;;;19.00;64.60;;;;;;4494175;31;20637;-77
2021/12/18 06:09:17;;;;;;;1.58;0.40;;;19.00;64.60;;;;;;4495165;31;20128;-76
2021/12/18 06:11:43;;;;;;;0.95;0.30;;;19.00;64.60;;;;;;4494312;31;20192;-77
2021/12/18 06:14:09;;;;;;;1.05;0.30;;;19.00;64.60;;;;;;4494701;31;20117;-77
2021/12/18 06:16:35;;;;;;;1.85;0.20;;;19.00;64.60;;;;;;4494566;31;20190;-76
2021/12/18 06:19:02;;;;;;;0.93;0.30;;;19.00;64.60;;;;;;4494521;32;20210;-76
2021/12/18 06:21:28;;;;;;;0.93;0.22;;;19.00;64.60;;;;;;4495320;32;20144;-76
2021/12/18 06:23:55;;;;;;;0.65;0.20;;;19.00;64.60;;;;;;4493844;32;20129;-76
2021/12/18 06:26:23;;;;;;;0.60;0.22;;;19.00;64.60;;;;;;4495285;32;20137;-77
2021/12/18 06:28:56;;;;;;;0.98;0.40;;;19.00;64.60;;;;;;4494245;32;20290;-77
2021/12/18 06:31:22;;;;;;;0.55;0.40;;;18.90;64.50;;;;;;4493573;32;20138;-77
2021/12/18 06:33:48;;;;;;;0.55;0.30;;;18.90;64.60;;;;;;4494582;32;20128;-77
2021/12/18 06:36:14;;;;;;;0.63;0.20;;;19.00;64.60;;;;;;4494102;32;20210;-77
2021/12/18 06:38:40;;;;;;;1.25;0.20;;;19.00;64.70;;;;;;4495073;32;20159;-76
2021/12/18 06:41:06;;;;;;;1.02;0.15;;;18.90;64.60;;;;;;4492800;32;20136;-76
2021/12/18 06:43:31;;;;;;;0.50;0.30;;;19.00;64.60;;;;;;4495080;32;20125;-77
2021/12/18 06:45:57;;;;;;;0.85;0.20;;;18.90;64.60;;;;;;4493107;32;20176;-77
2021/12/18 06:48:23;;;;;;;0.90;0.20;;;18.90;64.60;;;;;;4493487;32;20133;-76
2021/12/18 06:50:50;;;;;;;0.65;0.20;;;18.90;64.60;;;;;;4494277;32;20117;-76
2021/12/18 06:53:16;;;;;;;0.57;0.20;;;18.90;64.70;;;;;;4492982;32;20136;-77
2021/12/18 06:55:42;;;;;;;0.40;0.20;;;18.90;64.60;;;;;;4494882;32;20199;-76
2021/12/18 06:58:09;;;;;;;1.17;0.20;;;18.90;64.60;;;;;;4493855;32;20671;-76
2021/12/18 07:00:35;;;;;;;1.00;0.38;;;18.90;64.60;;;;;;4495305;31;20125;-76
2021/12/18 07:03:01;;;;;;;0.60;0.28;;;18.90;64.60;;;;;;4493690;32;20253;-76
2021/12/18 07:05:27;;;;;;;0.98;0.30;;;18.90;64.70;;;;;;4494723;31;20167;-76
2021/12/18 07:07:53;;;;;;;0.60;0.20;;;18.90;64.70;;;;;;4482568;31;20132;-76
2021/12/18 07:10:19;;;;;;;1.00;0.30;;;18.90;64.70;;;;;;4497237;31;20218;-76
2021/12/18 07:12:45;;;;;;;0.88;0.30;;;18.90;64.60;;;;;;4497702;31;20129;-76
2021/12/18 07:15:12;;;;;;;0.35;0.20;;;18.90;64.70;;;;;;4495493;31;20109;-76
2021/12/18 07:17:38;;;;;;;0.82;0.30;;;18.90;64.60;;;;;;4498274;31;20263;-77
2021/12/18 07:20:05;;;;;;;0.38;0.20;;;18.90;64.60;;;;;;4496363;31;20143;-76
2021/12/18 07:22:31;;;;;;;0.80;0.20;;;18.90;64.60;;;;;;4497613;31;20136;-76
2021/12/18 07:24:57;;;;;;;1.85;0.28;;;18.80;64.50;;;;;;4496784;31;20121;-76
2021/12/18 07:27:23;;;;;;;0.98;0.30;;;18.80;64.60;;;;;;4495866;31;20132;-76
2021/12/18 07:29:49;;;;;;;0.47;0.20;;;18.80;64.50;;;;;;4497364;31;20133;-76
2021/12/18 07:32:15;;;;;;;0.60;0.30;;;18.80;64.60;;;;;;4496175;31;20117;-76
2021/12/18 07:34:41;;;;;;;0.52;0.30;;;18.80;64.60;;;;;;4497944;31;20291;-76
2021/12/18 07:37:06;;;;;;;0.55;0.20;;;18.80;64.60;;;;;;4496342;31;20572;-77
2021/12/18 07:39:32;;;;;;;0.90;0.20;;;18.80;64.60;;;;;;4497241;31;20140;-77
2021/12/18 07:41:58;;;;;;;0.88;0.28;;;18.80;64.50;;;;;;4496452;31;20134;-77
2021/12/18 07:44:24;;;;;;;0.50;0.30;;;18.80;64.60;;;;;;4495456;31;20125;-77
2021/12/18 07:46:50;;;;;;;0.43;0.17;;;18.80;64.50;;;;;;4496995;31;20128;-76
2021/12/18 07:49:16;;;;;;;1.08;0.15;;;18.80;64.50;;;;;;4495115;31;20124;-75
2021/12/18 07:51:42;;;;;;;1.17;0.25;;;18.70;64.50;;;;;;4496160;31;20124;-73
2021/12/18 07:54:07;;;;;;;2.13;0.40;;;18.70;64.60;;;;;;4495992;31;20197;-73
2021/12/18 07:56:35;;;;;;;2.13;0.57;;;18.70;64.30;;;;;;4496050;31;20454;-73
2021/12/18 07:59:02;;;;;;;1.90;0.57;;;18.70;63.70;;;;;;4496232;31;20144;-73
2021/12/18 08:01:28;;;;;;;2.25;0.63;;;18.70;63.20;;;;;;4496658;31;20136;-75
2021/12/18 08:03:54;;;;;;;3.63;0.60;;;18.70;63.10;;;;;;4496587;31;20470;-72
2021/12/18 08:06:20;;;;;;;2.85;0.80;;;18.70;63.10;;;;;;4495886;31;20132;-72
2021/12/18 08:08:47;;;;;;;1.92;0.63;;;18.70;63.50;;;;;;4497152;31;20141;-71
2021/12/18 08:11:15;;;;;;;2.20;0.40;;;18.70;64.60;;;;;;4494665;31;20225;-72
2021/12/18 08:13:40;;;;;;;4.20;0.52;;;18.60;63.80;;;;;;4496597;31;20132;-72
2021/12/18 08:16:06;;;;;;;3.88;0.70;;;18.70;63.90;;;;;;4496024;31;20481;-72
2021/12/18 08:18:32;;;;;;;4.68;0.60;;;18.60;64.10;;;;;;4494405;31;20131;-72
2021/12/18 08:20:58;;;;;;;1.70;0.47;;;18.60;64.10;;;;;;4496226;31;20128;-71
2021/12/18 08:23:24;;;;;;;2.10;0.50;;;18.60;64.10;;;;;;4494396;31;20139;-72
2021/12/18 08:25:50;;;;;;;2.22;0.65;;;18.60;64.10;;;;;;4495822;31;20480;-73
2021/12/18 08:28:16;;;;;;;1.38;0.52;;;18.70;64.10;;;;;;4481306;31;20148;-71
2021/12/18 08:30:42;;;;;;;1.48;0.30;;;18.70;64.00;;;;;;4482475;31;20262;-72
2021/12/18 08:33:09;;;;;;;2.83;0.40;;;18.70;64.50;;;;;;4495300;31;20249;-71
2021/12/18 08:35:35;;;;;;;2.10;0.50;;;18.80;63.80;;;;;;4496187;31;20174;-70
2021/12/18 08:38:02;;;;;;;1.60;0.57;;;18.90;63.60;;;;;;4495851;31;20124;-71
2021/12/18 08:40:29;;;;;;;2.35;0.50;;;19.00;63.30;;;;;;4494670;31;20129;-70
2021/12/18 08:42:55;;;;;;;2.17;0.40;;;19.10;63.10;;;;;;4496515;31;20585;-72
2021/12/18 08:45:21;;;;;;;2.50;0.60;;;19.30;62.90;;;;;;4495118;31;20238;-71
2021/12/18 08:47:49;;;;;;;2.38;0.55;;;19.30;62.70;;;;;;4495406;31;20128;-71
2021/12/18 08:50:17;;;;;;;2.83;0.50;;;19.50;62.40;;;;;;4480748;31;20186;-72
2021/12/18 08:52:48;;;;;;;1.33;0.50;;;19.50;62.20;;;;;;4495897;31;20143;-72
2021/12/18 08:55:16;;;;;;;2.22;0.35;;;19.70;62.00;;;;;;4494699;31;20129;-70
2021/12/18 08:57:42;;;;;;;1.48;0.30;;;19.80;62.60;;;;;;4494207;31;20133;-72
2021/12/18 09:00:12;;;;;;;2.58;0.50;;;19.90;61.50;;;;;;4496201;31;20530;-72
2021/12/18 09:02:40;;;;;;;2.28;0.60;;;20.10;61.30;;;;;;4493764;31;20136;-72
2021/12/18 09:05:07;;;;;;;1.38;0.40;;;20.20;60.90;;;;;;4495133;31;20136;-71
2021/12/18 09:07:33;;;;;;;1.27;0.47;;;20.30;60.60;;;;;;4493934;31;20207;-72
2021/12/18 09:09:59;;;;;;;2.22;0.70;;;20.40;60.40;;;;;;4494646;31;20140;-72
2021/12/18 09:12:25;;;;;;;1.67;0.90;;;20.50;60.20;;;;;;4494593;31;20160;-73
2021/12/18 09:14:51;;;;;;;1.33;0.57;;;20.60;60.00;;;;;;4493671;31;20565;-72
2021/12/18 09:17:17;;;;;;;1.85;0.40;;;20.70;59.70;;;;;;4494973;31;20151;-71
2021/12/18 09:19:43;;;;;;;2.35;0.50;;;20.80;59.50;;;;;;4494290;31;20139;-69
2021/12/18 09:22:09;;;;;;;2.35;0.50;;;20.90;59.20;;;;;;4494652;31;20597;-69
2021/12/18 09:24:37;;;;;;;4.22;0.75;;;21.00;58.70;;;;;;4480523;31;20120;-72
2021/12/18 09:27:04;;;;;;;3.20;0.82;;;21.00;58.10;;;;;;4494361;31;20128;-72
2021/12/18 09:29:30;;;;;;;8.95;0.90;;;21.10;57.60;;;;;;4494927;31;20147;-71
2021/12/18 09:31:55;;;;;;;3.03;0.65;;;21.00;57.40;;;;;;4494859;31;20133;-72
2021/12/18 09:34:21;;;;;;;2.92;0.85;;;20.90;57.10;;;;;;4494892;31;20662;-71
2021/12/18 09:36:48;;;;;;;2.53;0.70;;;20.90;57.00;;;;;;4494444;31;20593;-74
2021/12/18 09:39:14;;;;;;;2.30;0.60;;;20.90;57.30;;;;;;4496118;31;20191;-71
2021/12/18 09:41:42;;;;;;;5.10;0.68;;;20.80;57.50;;;;;;4493382;31;20183;-70
2021/12/18 09:44:08;;;;;;;3.17;0.68;;;20.80;57.90;;;;;;4495146;31;20275;-70
2021/12/18 09:46:34;;;;;;;2.47;0.60;;;20.70;58.20;;;;;;4493819;31;20134;-69
2021/12/18 09:49:01;;;;;;;1.45;0.50;;;20.70;58.50;;;;;;4494564;31;20170;-70
2021/12/18 09:51:27;;;;;;;3.38;0.70;;;20.60;58.70;;;;;;4494209;31;20151;-71
2021/12/18 09:53:57;;;;;;;4.40;0.93;;;20.60;59.00;;;;;;4493956;31;20144;-72
2021/12/18 09:56:24;;;;;;;5.25;0.65;;;20.50;59.20;;;;;;4495701;31;20199;-70
2021/12/18 09:58:50;;;;;;;1.40;0.43;;;20.50;59.50;;;;;;4493015;31;20160;-69
2021/12/18 10:01:18;;;;;;;2.28;0.60;;;20.40;59.70;;;;;;4494007;31;20144;-71
2021/12/18 10:03:58;;;;;;;1.95;0.70;;;20.40;60.00;;;;;;4494558;31;20230;-70
2021/12/18 10:06:41;;;;;;;4.15;0.68;;;20.30;60.20;;;;;;4494271;31;20293;-72
2021/12/18 10:09:24;;;;;;;2.97;0.38;;;20.30;60.50;;;;;;4494424;31;20184;-71
2021/12/18 10:12:00;;;;;;;1.13;0.40;;;20.20;60.70;;;;;;4492995;31;20137;-71
2021/12/18 10:14:37;;;;;;;2.47;0.50;;;20.10;60.90;;;;;;4493727;31;20143;-71
2021/12/18 10:17:16;;;;;;;2.45;0.68;;;20.10;61.10;;;;;;4494993;31;20144;-67
2021/12/18 10:19:45;;;;;;;1.23;0.60;;;20.00;61.30;;;;;;4493284;31;20721;-74
2021/12/18 10:22:13;;;;;;;3.40;0.50;;;20.00;61.50;;;;;;4494525;31;20301;-73
2021/12/18 10:24:44;;;;;;;1.30;0.40;;;19.90;61.70;;;;;;4493683;31;20140;-72
2021/12/18 10:27:17;;;;;;;1.25;0.60;;;19.90;61.90;;;;;;4496090;31;20136;-72
2021/12/18 10:29:43;;;;;;;2.45;0.65;;;19.90;62.10;;;;;;4494399;31;20132;-73
2021/12/18 10:32:16;;;;;;;1.60;0.43;;;19.90;62.10;;;;;;4493542;31;20272;-72
2021/12/18 10:34:50;;;;;;;1.42;0.40;;;19.90;62.20;;;;;;4494838;31;20123;-76
2021/12/18 10:37:27;;;;;;;2.45;0.50;;;19.90;62.20;;;;;;4506987;31;20127;-79
2021/12/18 10:40:09;;;;;;;3.22;0.73;;;20.00;62.10;;;;;;4508281;31;20116;-75
2021/12/18 10:42:40;;;;;;;2.08;0.40;;;20.10;62.00;;;;;;4511005;31;20258;-72
2021/12/18 10:45:18;;;;;;;0.88;0.40;;;20.20;61.90;;;;;;4511977;31;20191;-72
2021/12/18 10:47:56;;;;;;;3.17;0.40;;;20.30;61.80;;;;;;4512953;31;20159;-73
2021/12/18 10:50:32;;;;;;;3.80;0.70;;;20.40;61.60;;;;;;4508521;31;20121;-73
2021/12/18 10:53:09;;;;;;;1.55;0.40;;;20.50;61.30;;;;;;4495761;31;20163;-74
2021/12/18 10:55:43;;;;;;;2.30;0.93;;;20.60;61.10;;;;;;4511233;31;20517;-73
2021/12/18 10:58:34;;;;;;;2.30;0.47;;;20.70;60.90;;;;;;4511606;31;20267;-74
2021/12/18 11:01:10;;;;;;;1.13;0.60;;;20.80;60.70;;;;;;4503677;31;20116;-76
2021/12/18 11:03:46;;;;;;;2.70;0.40;;;20.90;60.40;;;;;;4512322;31;20136;-71
2021/12/18 11:06:15;;;;;;;1.42;0.40;;;21.00;60.20;;;;;;4509233;31;20663;-71
2021/12/18 11:09:04;;;;;;;1.45;0.40;;;21.10;60.00;;;;;;4497632;31;20278;-71
2021/12/18 11:14:15;;;;;;;2.17;0.40;;;21.40;59.50;;;;;;4496870;31;20132;-70
2021/12/18 11:16:48;;;;;;;2.38;0.60;;;21.40;59.20;;;;;;4499200;31;20128;-73
2021/12/18 11:19:20;;;;;;;1.13;0.53;;;21.50;59.20;;;;;;4511627;31;20204;-72
2021/12/18 11:21:57;;;;;;;1.90;0.70;;;21.50;59.10;;;;;;4512698;31;20244;-71
2021/12/18 11:24:36;;;;;;;1.13;0.40;;;21.60;59.20;;;;;;4497746;31;20284;-71
2021/12/18 11:27:08;;;;;;;2.72;0.50;;;21.50;59.20;;;;;;4508348;31;20132;-76
2021/12/18 11:29:45;;;;;;;1.25;0.50;;;21.50;59.40;;;;;;4509085;31;20140;-71
2021/12/18 11:32:16;;;;;;;1.98;0.45;;;21.40;59.50;;;;;;4496758;31;20238;-71
2021/12/18 11:34:45;;;;;;;1.25;0.22;;;21.40;59.70;;;;;;4496143;31;20124;-74
2021/12/18 11:37:14;;;;;;;1.92;0.40;;;21.30;59.80;;;;;;4495752;31;20186;-72
2021/12/18 11:39:41;;;;;;;1.45;0.43;;;21.30;60.00;;;;;;4495774;31;20175;-70
2021/12/18 11:42:08;;;;;;;1.75;0.50;;;21.20;60.10;;;;;;4495887;31;20262;-77
2021/12/18 11:44:39;;;;;;;1.73;0.50;;;21.20;60.20;;;;;;4496268;31;20139;-73
2021/12/18 11:47:39;;;;;;;1.30;0.40;;;21.20;60.30;;;;;;4501023;31;20199;-71
2021/12/18 11:50:24;;;;;;;1.02;0.40;;;21.10;60.40;;;;;;4484046;31;20445;-73
2021/12/18 11:53:13;;;;;;;3.65;0.50;;;21.10;60.50;;;;;;4495458;31;20132;-72
2021/12/18 11:55:50;;;;;;;1.90;0.50;;;21.10;60.50;;;;;;4497466;31;20124;-73
2021/12/18 11:58:20;;;;;;;3.80;0.60;;;21.00;60.40;;;;;;4496133;31;20133;-73
2021/12/18 12:01:02;;;;;;;2.47;0.55;;;21.00;60.30;;;;;;4497365;31;20282;-73
2021/12/18 12:03:44;;;;;;;1.70;0.50;;;21.00;60.20;;;;;;4495237;31;20127;-72
2021/12/18 12:06:45;;;;;;;1.87;0.77;;;21.00;60.20;;;;;;4496088;31;20140;-66
2021/12/18 12:09:38;;;;;;;4.32;0.77;;;21.00;60.20;;;;;;4496814;31;20262;-71
2021/12/18 12:12:06;;;;;;;4.28;0.90;;;20.90;60.20;;;;;;4494836;31;20229;-73
2021/12/18 12:14:41;;;;;;;5.53;0.60;;;20.90;60.40;;;;;;4496308;31;20128;-72
2021/12/18 12:17:14;;;;;;;5.35;0.82;;;20.90;60.50;;;;;;4496793;31;20136;-72
2021/12/18 12:19:43;;;;;;;4.70;0.83;;;20.90;60.40;;;;;;4495787;31;20117;-73
2021/12/18 12:22:35;;;;;;;3.35;0.80;;;20.80;60.50;;;;;;4495493;31;20147;-72
2021/12/18 12:25:03;;;;;;;2.08;0.50;;;20.80;60.50;;;;;;4493306;31;20124;-73
2021/12/18 12:27:38;;;;;;;4.35;1.13;;;20.80;60.70;;;;;;4494971;31;20137;-74
2021/12/18 12:30:12;;;;;;;3.28;0.70;;;20.80;60.50;;;;;;4496765;31;20222;-76
2021/12/18 12:32:38;;;;;;;2.75;0.60;;;20.80;60.70;;;;;;4494472;31;20136;-75
2021/12/18 12:35:12;;;;;;;3.00;0.75;;;20.70;60.60;;;;;;4495484;31;20151;-73
2021/12/18 12:37:43;;;;;;;5.10;0.70;;;20.70;60.70;;;;;;4495618;31;20120;-74
2021/12/18 12:40:12;;;;;;;3.40;0.68;;;20.80;60.80;;;;;;4495730;31;20259;-73
2021/12/18 12:42:39;;;;;;;3.72;0.77;;;20.80;60.80;;;;;;4496119;31;20554;-74
2021/12/18 12:45:14;;;;;;;2.08;0.68;;;20.80;60.80;;;;;;4480996;31;20374;-73
2021/12/18 12:47:51;;;;;;;5.10;0.70;;;20.80;60.80;;;;;;4496670;31;20558;-72
2021/12/18 12:50:20;;;;;;;1.92;0.60;;;20.80;60.80;;;;;;4495134;31;20172;-73
2021/12/18 12:52:56;;;;;;;2.10;0.45;;;20.80;60.70;;;;;;4496002;31;20176;-73
2021/12/18 12:55:25;;;;;;;3.55;0.60;;;20.80;60.80;;;;;;4495624;31;20148;-74
2021/12/18 12:58:00;;;;;;;3.30;0.60;;;20.90;60.80;;;;;;4493502;31;20156;-73
2021/12/18 13:00:29;;;;;;;1.38;0.57;;;20.90;60.70;;;;;;4496204;31;20198;-73
2021/12/18 13:03:07;;;;;;;4.25;0.80;;;20.90;60.80;;;;;;4494456;31;20133;-75
2021/12/18 13:05:45;;;;;;;3.25;0.60;;;20.90;60.80;;;;;;4495018;31;20270;-73
2021/12/18 13:08:12;;;;;;;2.08;0.60;;;20.90;60.80;;;;;;4508414;31;20286;-74
2021/12/18 13:10:40;;;;;;;2.90;0.50;;;20.90;60.90;;;;;;4494904;31;20139;-74
2021/12/18 13:13:15;;;;;;;2.67;0.52;;;20.90;60.90;;;;;;4495959;31;20129;-74
2021/12/18 13:16:00;;;;;;;4.10;0.63;;;20.90;60.80;;;;;;4493804;31;20133;-74
2021/12/18 13:18:36;;;;;;;3.20;0.90;;;20.90;60.80;;;;;;4481315;31;20191;-73
2021/12/18 13:21:14;;;;;;;4.90;0.80;;;20.90;60.90;;;;;;4495359;31;20147;-69
2021/12/18 13:23:49;;;;;;;2.90;0.40;;;20.90;60.90;;;;;;4494689;31;20138;-72
2021/12/18 13:26:19;;;;;;;3.78;0.70;;;20.90;61.00;;;;;;4494804;31;20185;-74
2021/12/18 13:28:53;;;;;;;5.50;0.75;;;20.90;61.10;;;;;;4494830;31;20566;-73
2021/12/18 13:31:22;;;;;;;2.45;0.60;;;20.90;61.10;;;;;;4495185;31;20250;-75
2021/12/18 13:33:55;;;;;;;1.67;0.65;;;20.90;61.20;;;;;;4495417;31;20137;-73
2021/12/18 13:36:21;;;;;;;4.10;0.67;;;20.90;61.30;;;;;;4494733;31;20763;-72
2021/12/18 13:38:47;;;;;;;4.10;0.68;;;20.90;61.30;;;;;;4495289;31;20714;-74
2021/12/18 13:41:16;;;;;;;5.07;0.98;;;20.90;61.30;;;;;;4493609;31;20583;-74